Portada
METAR-TAF:

METAR-TAF

Aeropuertos :

Béchar, Argelia

latitud: 31-37N, longitud: 002-14W, altitud: 773 m

Observación

El informe se hizo hace 1 hora y 7 minutos, a las 00:00 UTC
Viento 4 kt del este
Temperatura 14°C
Humedad 31%
Presión 1025 hPa
Visibilidad 10 km o más
sin nubes por debajo de 1500 m y sin presencia de cumulonimbus.

METAR: DAOR 210000Z 09004KT CAVOK 14/M03 Q1025

Hora: 02:07 (01:07 UTC)

Pronóstico

El informe se hizo hace 2 horas y 7 minutos, a las 23:00 UTC
Pronóstico válido del 21 a las 00 UTC al 21 a las 09 UTC
Viento 8 kt del este
Visibilidad 10 km o más
Escasas nubes a una altura de 3300 ft

TAF: DAOR 202300Z 2100/2109 09008KT 9999 FEW033

Observaciones y pronósticos meteorológicos de más de 4000 aeropuertos (mensajes METAR y TAF).

Los puntos amarillos y rojos representan las estaciones disponibles.

Ponga el ratón en el punto deseado para ver el nombre de la estación.

Haga clic para ver las observaciones y los pronósticos meteorológicos.

Para cambiar el mapa : haga clic en los botones verdes con una cruz de color negro para hacer un zoom, en el botón verde con un guión para alejar o en las flechas verdes para mapas adyacentes.


METAR-TAF: